Gresham, Wisconsin
Current Conditions -  °F | °C
As of 11:15 AM on Saturday 20 Dec 2014 (Local Time) from KEZS Reporting Station
Overcast Overcast  
Wind Chill: 28°   Ceiling: 2800
Heat Index: 28°   Visibility: 7mi
Dew Point: 25°   Wind: 0mph
Humidity: 88%   Direction: NA
Pressure: 30.25"   Gusts: NA
Location:  44.85°N, 88.79°W
Report Text: KEZS 201715Z AUTO 00000KT 7SM BKN028 OVC033 M02/M04 A3025 RMK AO2 T10241041
Loading
Personal Weather Stations






























Interactive Weather Map New forecast layout! Learn more

10-Day Weather Forecast

Advertisements
Track Severe Weather on mobile